sensor_id;sensor_type;location;lat;lon;timestamp;temperature;humidity
27573;DHT22;15009;53.082;8.768;2022-09-12T00:04:13;15.20;99.90
27573;DHT22;15009;53.082;8.768;2022-09-12T00:07:14;15.10;99.90
27573;DHT22;15009;53.082;8.768;2022-09-12T00:10:15;15.10;99.90
27573;DHT22;15009;53.082;8.768;2022-09-12T00:13:15;15.00;99.90
27573;DHT22;15009;53.082;8.768;2022-09-12T00:16:19;14.90;99.90
27573;DHT22;15009;53.082;8.768;2022-09-12T00:19:20;14.90;99.90
27573;DHT22;15009;53.082;8.768;2022-09-12T00:22:21;14.80;99.90
27573;DHT22;15009;53.082;8.768;2022-09-12T00:25:21;14.70;99.90
27573;DHT22;15009;53.082;8.768;2022-09-12T00:28:22;14.70;99.90
27573;DHT22;15009;53.082;8.768;2022-09-12T00:31:25;14.70;99.90
27573;DHT22;15009;53.082;8.768;2022-09-12T00:34:25;14.70;99.90
27573;DHT22;15009;53.082;8.768;2022-09-12T00:37:26;14.80;99.90
27573;DHT22;15009;53.082;8.768;2022-09-12T00:40:27;14.80;99.90
27573;DHT22;15009;53.082;8.768;2022-09-12T00:43:40;14.90;99.90
27573;DHT22;15009;53.082;8.768;2022-09-12T00:47:21;14.80;99.90
27573;DHT22;15009;53.082;8.768;2022-09-12T00:50:23;14.80;99.90
27573;DHT22;15009;53.082;8.768;2022-09-12T00:53:24;14.70;99.90
27573;DHT22;15009;53.082;8.768;2022-09-12T00:56:26;14.60;99.90
27573;DHT22;15009;53.082;8.768;2022-09-12T00:59:31;14.60;99.90
27573;DHT22;15009;53.082;8.768;2022-09-12T01:02:33;14.40;99.90
27573;DHT22;15009;53.082;8.768;2022-09-12T01:05:37;14.40;99.90
27573;DHT22;15009;53.082;8.768;2022-09-12T01:08:39;14.40;99.90
27573;DHT22;15009;53.082;8.768;2022-09-12T01:11:43;14.40;99.90
27573;DHT22;15009;53.082;8.768;2022-09-12T01:14:46;14.30;99.90
27573;DHT22;15009;53.082;8.768;2022-09-12T01:35:53;14.20;99.90
27573;DHT22;15009;53.082;8.768;2022-09-12T01:45:24;14.30;99.90
27573;DHT22;15009;53.082;8.768;2022-09-12T01:48:31;14.20;99.90
27573;DHT22;15009;53.082;8.768;2022-09-12T01:51:41;14.20;99.90
27573;DHT22;15009;53.082;8.768;2022-09-12T01:54:50;14.20;99.90
27573;DHT22;15009;53.082;8.768;2022-09-12T01:58:11;14.10;99.90
27573;DHT22;15009;53.082;8.768;2022-09-12T02:01:18;14.10;99.90
27573;DHT22;15009;53.082;8.768;2022-09-12T02:04:21;14.10;99.90
27573;DHT22;15009;53.082;8.768;2022-09-12T02:07:45;14.00;99.90
27573;DHT22;15009;53.082;8.768;2022-09-12T02:10:59;14.10;99.90
27573;DHT22;15009;53.082;8.768;2022-09-12T02:14:09;14.10;99.90
27573;DHT22;15009;53.082;8.768;2022-09-12T02:17:13;14.00;99.90
27573;DHT22;15009;53.082;8.768;2022-09-12T02:20:25;14.10;99.90
27573;DHT22;15009;53.082;8.768;2022-09-12T02:23:29;14.10;99.90
27573;DHT22;15009;53.082;8.768;2022-09-12T02:26:34;14.20;99.90
27573;DHT22;15009;53.082;8.768;2022-09-12T02:29:35;14.20;99.90
27573;DHT22;15009;53.082;8.768;2022-09-12T02:32:42;14.20;99.90
27573;DHT22;15009;53.082;8.768;2022-09-12T02:39:22;14.20;99.90
27573;DHT22;15009;53.082;8.768;2022-09-12T02:42:23;14.10;99.90
27573;DHT22;15009;53.082;8.768;2022-09-12T02:45:24;14.10;99.90
27573;DHT22;15009;53.082;8.768;2022-09-12T02:48:33;14.00;99.90
27573;DHT22;15009;53.082;8.768;2022-09-12T02:51:36;14.00;99.90
27573;DHT22;15009;53.082;8.768;2022-09-12T02:54:37;13.90;99.90
27573;DHT22;15009;53.082;8.768;2022-09-12T02:57:38;14.00;99.90
27573;DHT22;15009;53.082;8.768;2022-09-12T03:04:22;14.00;99.90
27573;DHT22;15009;53.082;8.768;2022-09-12T03:07:58;13.90;99.90
27573;DHT22;15009;53.082;8.768;2022-09-12T03:14:40;13.80;99.90
27573;DHT22;15009;53.082;8.768;2022-09-12T03:21:08;13.80;99.90
27573;DHT22;15009;53.082;8.768;2022-09-12T03:24:20;13.80;99.90
27573;DHT22;15009;53.082;8.768;2022-09-12T03:27:33;13.80;99.90
27573;DHT22;15009;53.082;8.768;2022-09-12T03:30:44;13.90;99.90
27573;DHT22;15009;53.082;8.768;2022-09-12T03:33:45;13.80;99.90
27573;DHT22;15009;53.082;8.768;2022-09-12T03:36:46;13.90;99.90
27573;DHT22;15009;53.082;8.768;2022-09-12T03:39:46;13.80;99.90
27573;DHT22;15009;53.082;8.768;2022-09-12T03:42:47;13.80;99.90
27573;DHT22;15009;53.082;8.768;2022-09-12T03:45:51;13.70;99.90
27573;DHT22;15009;53.082;8.768;2022-09-12T03:48:52;13.80;99.90
27573;DHT22;15009;53.082;8.768;2022-09-12T03:51:53;13.80;99.90
27573;DHT22;15009;53.082;8.768;2022-09-12T03:54:53;13.70;99.90
27573;DHT22;15009;53.082;8.768;2022-09-12T03:57:54;13.70;99.90
27573;DHT22;15009;53.082;8.768;2022-09-12T04:00:55;13.80;99.90
27573;DHT22;15009;53.082;8.768;2022-09-12T04:03:56;13.70;99.90
27573;DHT22;15009;53.082;8.768;2022-09-12T04:06:56;13.80;99.90
27573;DHT22;15009;53.082;8.768;2022-09-12T04:09:57;13.70;99.90
27573;DHT22;15009;53.082;8.768;2022-09-12T04:12:58;13.70;99.90
27573;DHT22;15009;53.082;8.768;2022-09-12T04:15:58;13.80;99.90
27573;DHT22;15009;53.082;8.768;2022-09-12T04:18:59;13.70;99.90
27573;DHT22;15009;53.082;8.768;2022-09-12T04:22:00;13.70;99.90
27573;DHT22;15009;53.082;8.768;2022-09-12T04:25:04;13.70;99.90
27573;DHT22;15009;53.082;8.768;2022-09-12T04:28:04;13.70;99.90
27573;DHT22;15009;53.082;8.768;2022-09-12T04:31:08;13.70;99.90
27573;DHT22;15009;53.082;8.768;2022-09-12T04:34:09;13.70;99.90
27573;DHT22;15009;53.082;8.768;2022-09-12T04:37:10;13.60;99.90
27573;DHT22;15009;53.082;8.768;2022-09-12T04:40:11;13.60;99.90
27573;DHT22;15009;53.082;8.768;2022-09-12T04:43:12;13.60;99.90
27573;DHT22;15009;53.082;8.768;2022-09-12T04:46:14;13.60;99.90
27573;DHT22;15009;53.082;8.768;2022-09-12T04:49:15;13.50;99.90
27573;DHT22;15009;53.082;8.768;2022-09-12T04:52:16;13.60;99.90
27573;DHT22;15009;53.082;8.768;2022-09-12T04:55:17;13.50;99.90
27573;DHT22;15009;53.082;8.768;2022-09-12T04:58:18;13.50;99.90
27573;DHT22;15009;53.082;8.768;2022-09-12T05:01:21;13.50;99.90
27573;DHT22;15009;53.082;8.768;2022-09-12T05:04:22;13.50;99.90
27573;DHT22;15009;53.082;8.768;2022-09-12T05:07:23;13.50;99.90
27573;DHT22;15009;53.082;8.768;2022-09-12T05:10:23;13.60;99.90
27573;DHT22;15009;53.082;8.768;2022-09-12T05:13:24;13.70;99.90
27573;DHT22;15009;53.082;8.768;2022-09-12T05:16:27;13.70;99.90
27573;DHT22;15009;53.082;8.768;2022-09-12T05:19:29;13.80;99.90
27573;DHT22;15009;53.082;8.768;2022-09-12T05:22:29;13.80;99.90
27573;DHT22;15009;53.082;8.768;2022-09-12T05:25:30;13.80;99.90
27573;DHT22;15009;53.082;8.768;2022-09-12T05:28:36;13.80;99.90
27573;DHT22;15009;53.082;8.768;2022-09-12T05:31:37;13.90;99.90
27573;DHT22;15009;53.082;8.768;2022-09-12T05:34:39;14.00;99.90
27573;DHT22;15009;53.082;8.768;2022-09-12T05:37:41;14.10;99.90
27573;DHT22;15009;53.082;8.768;2022-09-12T05:40:42;14.00;99.90
27573;DHT22;15009;53.082;8.768;2022-09-12T05:43:43;14.10;99.90
27573;DHT22;15009;53.082;8.768;2022-09-12T05:46:44;14.10;99.90
27573;DHT22;15009;53.082;8.768;2022-09-12T05:49:47;14.20;99.90
27573;DHT22;15009;53.082;8.768;2022-09-12T05:52:50;14.30;99.90
27573;DHT22;15009;53.082;8.768;2022-09-12T05:56:10;14.40;99.90
27573;DHT22;15009;53.082;8.768;2022-09-12T05:59:19;14.50;99.90
27573;DHT22;15009;53.082;8.768;2022-09-12T06:02:20;14.70;99.90
27573;DHT22;15009;53.082;8.768;2022-09-12T06:05:20;14.90;99.90
27573;DHT22;15009;53.082;8.768;2022-09-12T06:08:21;14.90;99.90
27573;DHT22;15009;53.082;8.768;2022-09-12T06:11:23;15.10;99.90
27573;DHT22;15009;53.082;8.768;2022-09-12T06:14:25;15.30;99.90
27573;DHT22;15009;53.082;8.768;2022-09-12T06:17:25;15.30;99.90
27573;DHT22;15009;53.082;8.768;2022-09-12T06:20:26;15.40;99.90
27573;DHT22;15009;53.082;8.768;2022-09-12T06:23:26;15.50;99.90
27573;DHT22;15009;53.082;8.768;2022-09-12T06:26:28;15.70;99.90
27573;DHT22;15009;53.082;8.768;2022-09-12T06:29:29;15.80;99.90
27573;DHT22;15009;53.082;8.768;2022-09-12T06:32:31;15.80;99.90
27573;DHT22;15009;53.082;8.768;2022-09-12T06:35:37;15.90;99.90
27573;DHT22;15009;53.082;8.768;2022-09-12T06:38:39;15.90;99.90
27573;DHT22;15009;53.082;8.768;2022-09-12T06:41:39;16.10;99.90
27573;DHT22;15009;53.082;8.768;2022-09-12T06:44:40;16.20;99.90
27573;DHT22;15009;53.082;8.768;2022-09-12T06:47:41;16.30;99.90
27573;DHT22;15009;53.082;8.768;2022-09-12T06:50:41;16.50;99.90
27573;DHT22;15009;53.082;8.768;2022-09-12T06:53:43;16.70;99.90
27573;DHT22;15009;53.082;8.768;2022-09-12T06:56:44;16.90;99.90
27573;DHT22;15009;53.082;8.768;2022-09-12T06:59:45;17.20;99.90
27573;DHT22;15009;53.082;8.768;2022-09-12T07:02:45;17.40;99.90
27573;DHT22;15009;53.082;8.768;2022-09-12T07:05:46;17.60;99.90
27573;DHT22;15009;53.082;8.768;2022-09-12T07:08:47;17.90;99.90
27573;DHT22;15009;53.082;8.768;2022-09-12T07:11:47;18.10;99.90
27573;DHT22;15009;53.082;8.768;2022-09-12T07:14:48;18.50;99.90
27573;DHT22;15009;53.082;8.768;2022-09-12T07:17:49;18.80;99.90
27573;DHT22;15009;53.082;8.768;2022-09-12T07:20:49;19.40;99.90
27573;DHT22;15009;53.082;8.768;2022-09-12T07:23:50;20.80;99.90
27573;DHT22;15009;53.082;8.768;2022-09-12T07:26:59;22.40;99.90
27573;DHT22;15009;53.082;8.768;2022-09-12T07:30:00;24.30;99.90
27573;DHT22;15009;53.082;8.768;2022-09-12T07:33:00;25.20;99.90
27573;DHT22;15009;53.082;8.768;2022-09-12T07:36:03;26.40;99.90
27573;DHT22;15009;53.082;8.768;2022-09-12T07:39:04;27.10;99.90
27573;DHT22;15009;53.082;8.768;2022-09-12T07:42:05;27.60;99.90
27573;DHT22;15009;53.082;8.768;2022-09-12T07:45:06;27.70;99.90
27573;DHT22;15009;53.082;8.768;2022-09-12T07:48:08;27.70;99.90
27573;DHT22;15009;53.082;8.768;2022-09-12T07:51:09;28.00;99.90
27573;DHT22;15009;53.082;8.768;2022-09-12T07:54:10;28.50;99.90
27573;DHT22;15009;53.082;8.768;2022-09-12T07:57:11;27.40;99.90
27573;DHT22;15009;53.082;8.768;2022-09-12T08:00:12;26.80;99.90
27573;DHT22;15009;53.082;8.768;2022-09-12T08:03:12;26.70;99.90
27573;DHT22;15009;53.082;8.768;2022-09-12T08:06:14;26.10;99.90
27573;DHT22;15009;53.082;8.768;2022-09-12T08:09:15;25.30;99.90
27573;DHT22;15009;53.082;8.768;2022-09-12T08:12:16;24.50;99.90
27573;DHT22;15009;53.082;8.768;2022-09-12T08:15:19;23.60;99.90
27573;DHT22;15009;53.082;8.768;2022-09-12T08:18:20;23.00;99.90
27573;DHT22;15009;53.082;8.768;2022-09-12T08:21:23;22.50;99.90
27573;DHT22;15009;53.082;8.768;2022-09-12T08:24:23;22.30;99.90
27573;DHT22;15009;53.082;8.768;2022-09-12T08:27:24;22.30;99.90
27573;DHT22;15009;53.082;8.768;2022-09-12T08:30:25;22.00;99.90
27573;DHT22;15009;53.082;8.768;2022-09-12T08:33:25;22.20;99.90
27573;DHT22;15009;53.082;8.768;2022-09-12T08:36:32;22.40;99.90
27573;DHT22;15009;53.082;8.768;2022-09-12T08:39:33;22.30;99.90
27573;DHT22;15009;53.082;8.768;2022-09-12T08:42:56;22.40;99.90
27573;DHT22;15009;53.082;8.768;2022-09-12T08:46:10;22.10;99.90
27573;DHT22;15009;53.082;8.768;2022-09-12T08:49:24;22.20;99.90
27573;DHT22;15009;53.082;8.768;2022-09-12T08:55:42;22.40;99.90
27573;DHT22;15009;53.082;8.768;2022-09-12T08:58:44;22.70;99.90
27573;DHT22;15009;53.082;8.768;2022-09-12T09:01:45;22.90;99.90
27573;DHT22;15009;53.082;8.768;2022-09-12T09:04:58;22.90;99.90
27573;DHT22;15009;53.082;8.768;2022-09-12T09:11:36;23.10;99.90
27573;DHT22;15009;53.082;8.768;2022-09-12T09:22:31;23.40;99.90
27573;DHT22;15009;53.082;8.768;2022-09-12T09:25:04;23.60;99.90
27573;DHT22;15009;53.082;8.768;2022-09-12T09:28:16;23.20;99.90
27573;DHT22;15009;53.082;8.768;2022-09-12T09:31:19;23.30;99.90
27573;DHT22;15009;53.082;8.768;2022-09-12T09:34:23;23.70;99.90
27573;DHT22;15009;53.082;8.768;2022-09-12T09:37:38;24.10;99.90
27573;DHT22;15009;53.082;8.768;2022-09-12T09:43:47;23.80;99.90
27573;DHT22;15009;53.082;8.768;2022-09-12T09:46:53;23.50;99.90
27573;DHT22;15009;53.082;8.768;2022-09-12T09:49:53;23.20;99.90
27573;DHT22;15009;53.082;8.768;2022-09-12T09:52:56;23.00;99.90
27573;DHT22;15009;53.082;8.768;2022-09-12T09:56:01;23.20;99.90
27573;DHT22;15009;53.082;8.768;2022-09-12T09:59:11;23.30;99.90
27573;DHT22;15009;53.082;8.768;2022-09-12T10:05:15;23.10;99.90
27573;DHT22;15009;53.082;8.768;2022-09-12T10:08:29;23.10;99.90
27573;DHT22;15009;53.082;8.768;2022-09-12T10:11:31;23.00;99.90
27573;DHT22;15009;53.082;8.768;2022-09-12T10:14:38;22.90;99.90
27573;DHT22;15009;53.082;8.768;2022-09-12T10:17:43;22.90;99.90
27573;DHT22;15009;53.082;8.768;2022-09-12T10:20:44;23.10;99.90
27573;DHT22;15009;53.082;8.768;2022-09-12T10:23:46;22.90;99.90
27573;DHT22;15009;53.082;8.768;2022-09-12T10:30:17;23.30;99.90
27573;DHT22;15009;53.082;8.768;2022-09-12T10:33:18;23.60;99.90
27573;DHT22;15009;53.082;8.768;2022-09-12T10:36:19;23.60;99.90
27573;DHT22;15009;53.082;8.768;2022-09-12T10:39:21;23.70;99.90
27573;DHT22;15009;53.082;8.768;2022-09-12T10:42:41;23.60;99.90
27573;DHT22;15009;53.082;8.768;2022-09-12T10:45:42;23.30;99.90
27573;DHT22;15009;53.082;8.768;2022-09-12T10:48:45;23.30;99.90
27573;DHT22;15009;53.082;8.768;2022-09-12T10:51:47;23.30;99.90
27573;DHT22;15009;53.082;8.768;2022-09-12T10:54:49;23.60;99.90
27573;DHT22;15009;53.082;8.768;2022-09-12T10:57:56;23.50;99.90
27573;DHT22;15009;53.082;8.768;2022-09-12T11:01:11;23.50;99.90
27573;DHT22;15009;53.082;8.768;2022-09-12T11:07:46;23.60;99.90
27573;DHT22;15009;53.082;8.768;2022-09-12T11:14:16;23.70;99.90
27573;DHT22;15009;53.082;8.768;2022-09-12T11:30:38;24.10;99.90
27573;DHT22;15009;53.082;8.768;2022-09-12T11:33:46;24.50;99.90
27573;DHT22;15009;53.082;8.768;2022-09-12T11:37:19;24.70;99.90
27573;DHT22;15009;53.082;8.768;2022-09-12T11:43:55;25.20;99.90
27573;DHT22;15009;53.082;8.768;2022-09-12T11:47:04;24.70;99.90
27573;DHT22;15009;53.082;8.768;2022-09-12T11:50:19;24.30;99.90
27573;DHT22;15009;53.082;8.768;2022-09-12T11:53:27;24.30;99.90
27573;DHT22;15009;53.082;8.768;2022-09-12T11:56:29;24.40;99.90
27573;DHT22;15009;53.082;8.768;2022-09-12T12:06:17;24.70;99.90
27573;DHT22;15009;53.082;8.768;2022-09-12T12:09:20;24.90;99.90
27573;DHT22;15009;53.082;8.768;2022-09-12T12:12:23;24.80;99.90
27573;DHT22;15009;53.082;8.768;2022-09-12T12:15:26;24.70;99.90
27573;DHT22;15009;53.082;8.768;2022-09-12T12:18:28;24.70;99.90
27573;DHT22;15009;53.082;8.768;2022-09-12T12:21:50;24.60;99.90
27573;DHT22;15009;53.082;8.768;2022-09-12T12:25:06;24.50;99.90
27573;DHT22;15009;53.082;8.768;2022-09-12T12:28:07;24.90;99.90
27573;DHT22;15009;53.082;8.768;2022-09-12T12:31:09;25.10;99.90
27573;DHT22;15009;53.082;8.768;2022-09-12T12:40:41;24.40;99.90
27573;DHT22;15009;53.082;8.768;2022-09-12T12:43:51;24.30;99.90
27573;DHT22;15009;53.082;8.768;2022-09-12T12:47:21;24.40;99.90
27573;DHT22;15009;53.082;8.768;2022-09-12T12:50:25;24.60;99.90
27573;DHT22;15009;53.082;8.768;2022-09-12T12:53:27;24.50;99.90
27573;DHT22;15009;53.082;8.768;2022-09-12T12:59:51;24.10;99.90
27573;DHT22;15009;53.082;8.768;2022-09-12T13:06:22;24.00;99.90
27573;DHT22;15009;53.082;8.768;2022-09-12T13:09:38;24.00;99.90
27573;DHT22;15009;53.082;8.768;2022-09-12T13:12:45;23.90;99.90
27573;DHT22;15009;53.082;8.768;2022-09-12T13:15:49;23.90;99.90
27573;DHT22;15009;53.082;8.768;2022-09-12T13:18:50;23.70;99.90
27573;DHT22;15009;53.082;8.768;2022-09-12T13:22:05;23.60;99.90
27573;DHT22;15009;53.082;8.768;2022-09-12T13:25:26;23.50;99.90
27573;DHT22;15009;53.082;8.768;2022-09-12T13:28:28;23.40;99.90
27573;DHT22;15009;53.082;8.768;2022-09-12T13:31:29;23.20;99.90
27573;DHT22;15009;53.082;8.768;2022-09-12T13:34:33;23.00;99.90
27573;DHT22;15009;53.082;8.768;2022-09-12T13:41:29;23.00;99.90
27573;DHT22;15009;53.082;8.768;2022-09-12T13:44:41;23.30;99.90
27573;DHT22;15009;53.082;8.768;2022-09-12T13:47:44;23.40;99.90
27573;DHT22;15009;53.082;8.768;2022-09-12T13:50:51;23.50;99.90
27573;DHT22;15009;53.082;8.768;2022-09-12T13:53:55;23.60;99.90
27573;DHT22;15009;53.082;8.768;2022-09-12T13:56:57;23.60;99.90
27573;DHT22;15009;53.082;8.768;2022-09-12T13:59:59;23.40;99.90
27573;DHT22;15009;53.082;8.768;2022-09-12T14:03:25;23.30;99.90
27573;DHT22;15009;53.082;8.768;2022-09-12T14:06:48;23.30;99.90
27573;DHT22;15009;53.082;8.768;2022-09-12T14:09:58;23.30;99.90
27573;DHT22;15009;53.082;8.768;2022-09-12T14:13:01;23.20;99.90
27573;DHT22;15009;53.082;8.768;2022-09-12T14:16:02;23.20;99.90
27573;DHT22;15009;53.082;8.768;2022-09-12T14:19:03;23.20;99.90
27573;DHT22;15009;53.082;8.768;2022-09-12T14:22:11;23.10;99.90
27573;DHT22;15009;53.082;8.768;2022-09-12T14:25:23;23.10;99.90
27573;DHT22;15009;53.082;8.768;2022-09-12T14:28:25;23.10;99.90
27573;DHT22;15009;53.082;8.768;2022-09-12T14:31:30;22.90;99.90
27573;DHT22;15009;53.082;8.768;2022-09-12T14:34:31;22.90;99.90
27573;DHT22;15009;53.082;8.768;2022-09-12T14:37:32;22.90;99.90
27573;DHT22;15009;53.082;8.768;2022-09-12T14:40:40;22.90;99.90
27573;DHT22;15009;53.082;8.768;2022-09-12T14:43:46;22.90;99.90
27573;DHT22;15009;53.082;8.768;2022-09-12T14:46:50;22.90;99.90
27573;DHT22;15009;53.082;8.768;2022-09-12T14:49:51;22.90;99.90
27573;DHT22;15009;53.082;8.768;2022-09-12T14:56:20;23.00;99.90
27573;DHT22;15009;53.082;8.768;2022-09-12T15:02:33;22.90;99.90
27573;DHT22;15009;53.082;8.768;2022-09-12T15:05:47;22.90;99.90
27573;DHT22;15009;53.082;8.768;2022-09-12T15:08:49;23.00;99.90
27573;DHT22;15009;53.082;8.768;2022-09-12T15:11:51;23.00;99.90
27573;DHT22;15009;53.082;8.768;2022-09-12T15:14:52;22.90;99.90
27573;DHT22;15009;53.082;8.768;2022-09-12T15:18:00;22.90;99.90
27573;DHT22;15009;53.082;8.768;2022-09-12T15:21:03;22.80;99.90
27573;DHT22;15009;53.082;8.768;2022-09-12T15:24:04;22.70;99.90
27573;DHT22;15009;53.082;8.768;2022-09-12T15:27:10;22.60;99.90
27573;DHT22;15009;53.082;8.768;2022-09-12T15:30:11;22.50;99.90
27573;DHT22;15009;53.082;8.768;2022-09-12T15:33:12;22.40;99.90
27573;DHT22;15009;53.082;8.768;2022-09-12T15:36:16;22.40;99.90
27573;DHT22;15009;53.082;8.768;2022-09-12T15:39:17;22.40;99.90
27573;DHT22;15009;53.082;8.768;2022-09-12T15:42:27;22.40;99.90
27573;DHT22;15009;53.082;8.768;2022-09-12T15:45:33;22.50;99.90
27573;DHT22;15009;53.082;8.768;2022-09-12T15:48:33;22.40;99.90
27573;DHT22;15009;53.082;8.768;2022-09-12T15:51:34;22.30;99.90
27573;DHT22;15009;53.082;8.768;2022-09-12T15:54:35;22.30;99.90
27573;DHT22;15009;53.082;8.768;2022-09-12T15:57:35;22.30;99.90
27573;DHT22;15009;53.082;8.768;2022-09-12T16:00:36;22.20;99.90
27573;DHT22;15009;53.082;8.768;2022-09-12T16:03:36;22.20;99.90
27573;DHT22;15009;53.082;8.768;2022-09-12T16:06:37;22.30;99.90
27573;DHT22;15009;53.082;8.768;2022-09-12T16:09:38;22.40;99.90
27573;DHT22;15009;53.082;8.768;2022-09-12T16:12:38;22.30;99.90
27573;DHT22;15009;53.082;8.768;2022-09-12T16:15:39;22.30;99.90
27573;DHT22;15009;53.082;8.768;2022-09-12T16:18:40;22.30;99.90
27573;DHT22;15009;53.082;8.768;2022-09-12T16:21:41;22.30;99.90
27573;DHT22;15009;53.082;8.768;2022-09-12T16:24:42;22.30;99.90
27573;DHT22;15009;53.082;8.768;2022-09-12T16:27:43;22.30;99.90
27573;DHT22;15009;53.082;8.768;2022-09-12T16:30:56;22.30;99.90
27573;DHT22;15009;53.082;8.768;2022-09-12T16:33:57;22.30;99.90
27573;DHT22;15009;53.082;8.768;2022-09-12T16:36:58;22.30;99.90
27573;DHT22;15009;53.082;8.768;2022-09-12T16:39:59;22.30;99.90
27573;DHT22;15009;53.082;8.768;2022-09-12T16:43:00;22.30;99.90
27573;DHT22;15009;53.082;8.768;2022-09-12T16:49:03;22.30;99.90
27573;DHT22;15009;53.082;8.768;2022-09-12T16:52:05;22.20;99.90
27573;DHT22;15009;53.082;8.768;2022-09-12T16:55:06;22.30;99.90
27573;DHT22;15009;53.082;8.768;2022-09-12T16:58:07;22.10;99.90
27573;DHT22;15009;53.082;8.768;2022-09-12T17:01:15;22.00;99.90
27573;DHT22;15009;53.082;8.768;2022-09-12T17:04:16;22.00;99.90
27573;DHT22;15009;53.082;8.768;2022-09-12T17:07:16;21.80;99.90
27573;DHT22;15009;53.082;8.768;2022-09-12T17:10:17;21.80;99.90
27573;DHT22;15009;53.082;8.768;2022-09-12T17:13:18;21.70;99.90
27573;DHT22;15009;53.082;8.768;2022-09-12T17:16:18;21.60;99.90
27573;DHT22;15009;53.082;8.768;2022-09-12T17:19:24;21.50;99.90
27573;DHT22;15009;53.082;8.768;2022-09-12T17:22:25;21.40;99.90
27573;DHT22;15009;53.082;8.768;2022-09-12T17:25:27;21.30;99.90
27573;DHT22;15009;53.082;8.768;2022-09-12T17:28:27;21.20;99.90
27573;DHT22;15009;53.082;8.768;2022-09-12T17:31:28;21.10;99.90
27573;DHT22;15009;53.082;8.768;2022-09-12T17:34:29;21.00;99.90
27573;DHT22;15009;53.082;8.768;2022-09-12T17:37:30;20.90;99.90
27573;DHT22;15009;53.082;8.768;2022-09-12T17:40:33;20.90;99.90
27573;DHT22;15009;53.082;8.768;2022-09-12T17:43:35;20.90;99.90
27573;DHT22;15009;53.082;8.768;2022-09-12T17:46:37;20.80;99.90
27573;DHT22;15009;53.082;8.768;2022-09-12T17:49:38;20.60;99.90
27573;DHT22;15009;53.082;8.768;2022-09-12T17:52:39;20.60;99.90
27573;DHT22;15009;53.082;8.768;2022-09-12T17:55:40;20.60;99.90
27573;DHT22;15009;53.082;8.768;2022-09-12T17:58:41;20.60;99.90
27573;DHT22;15009;53.082;8.768;2022-09-12T18:01:41;20.60;99.90
27573;DHT22;15009;53.082;8.768;2022-09-12T18:05:00;20.60;99.90
27573;DHT22;15009;53.082;8.768;2022-09-12T18:08:04;20.60;99.90
27573;DHT22;15009;53.082;8.768;2022-09-12T18:11:05;20.60;99.90
27573;DHT22;15009;53.082;8.768;2022-09-12T18:14:07;20.60;99.90
27573;DHT22;15009;53.082;8.768;2022-09-12T18:17:08;20.50;99.90
27573;DHT22;15009;53.082;8.768;2022-09-12T18:20:10;20.40;99.90
27573;DHT22;15009;53.082;8.768;2022-09-12T18:23:11;20.40;99.90
27573;DHT22;15009;53.082;8.768;2022-09-12T18:26:12;20.40;99.90
27573;DHT22;15009;53.082;8.768;2022-09-12T18:29:13;20.40;99.90
27573;DHT22;15009;53.082;8.768;2022-09-12T18:32:19;20.30;99.90
27573;DHT22;15009;53.082;8.768;2022-09-12T18:35:19;20.30;99.90
27573;DHT22;15009;53.082;8.768;2022-09-12T18:38:20;20.20;99.90
27573;DHT22;15009;53.082;8.768;2022-09-12T18:41:22;20.10;99.90
27573;DHT22;15009;53.082;8.768;2022-09-12T18:44:23;20.20;99.90
27573;DHT22;15009;53.082;8.768;2022-09-12T18:47:23;20.20;99.90
27573;DHT22;15009;53.082;8.768;2022-09-12T18:50:24;20.10;99.90
27573;DHT22;15009;53.082;8.768;2022-09-12T18:53:24;20.10;99.90
27573;DHT22;15009;53.082;8.768;2022-09-12T18:56:27;20.00;99.90
27573;DHT22;15009;53.082;8.768;2022-09-12T18:59:28;19.90;99.90
27573;DHT22;15009;53.082;8.768;2022-09-12T19:02:28;19.90;99.90
27573;DHT22;15009;53.082;8.768;2022-09-12T19:05:29;19.80;99.90
27573;DHT22;15009;53.082;8.768;2022-09-12T19:08:30;19.80;99.90
27573;DHT22;15009;53.082;8.768;2022-09-12T19:11:30;19.70;99.90
27573;DHT22;15009;53.082;8.768;2022-09-12T19:14:31;19.60;99.90
27573;DHT22;15009;53.082;8.768;2022-09-12T19:17:32;19.60;99.90
27573;DHT22;15009;53.082;8.768;2022-09-12T19:20:34;19.50;99.90
27573;DHT22;15009;53.082;8.768;2022-09-12T19:23:36;19.50;99.90
27573;DHT22;15009;53.082;8.768;2022-09-12T19:26:37;19.50;99.90
27573;DHT22;15009;53.082;8.768;2022-09-12T19:29:38;19.40;99.90
27573;DHT22;15009;53.082;8.768;2022-09-12T19:32:39;19.30;99.90
27573;DHT22;15009;53.082;8.768;2022-09-12T19:35:40;19.40;99.90
27573;DHT22;15009;53.082;8.768;2022-09-12T19:38:40;19.30;99.90
27573;DHT22;15009;53.082;8.768;2022-09-12T19:41:41;19.30;99.90
27573;DHT22;15009;53.082;8.768;2022-09-12T19:44:42;19.20;99.90
27573;DHT22;15009;53.082;8.768;2022-09-12T19:47:42;19.20;99.90
27573;DHT22;15009;53.082;8.768;2022-09-12T19:50:43;19.10;99.90
27573;DHT22;15009;53.082;8.768;2022-09-12T19:53:45;19.10;99.90
27573;DHT22;15009;53.082;8.768;2022-09-12T19:56:45;19.10;99.90
27573;DHT22;15009;53.082;8.768;2022-09-12T19:59:46;19.00;99.90
27573;DHT22;15009;53.082;8.768;2022-09-12T20:02:51;19.00;99.90
27573;DHT22;15009;53.082;8.768;2022-09-12T20:05:52;19.00;99.90
27573;DHT22;15009;53.082;8.768;2022-09-12T20:08:53;19.00;99.90
27573;DHT22;15009;53.082;8.768;2022-09-12T20:11:54;18.90;99.90
27573;DHT22;15009;53.082;8.768;2022-09-12T20:14:55;18.90;99.90
27573;DHT22;15009;53.082;8.768;2022-09-12T20:17:56;18.80;99.90
27573;DHT22;15009;53.082;8.768;2022-09-12T20:20:57;18.70;99.90
27573;DHT22;15009;53.082;8.768;2022-09-12T20:24:04;18.70;99.90
27573;DHT22;15009;53.082;8.768;2022-09-12T20:27:05;18.70;99.90
27573;DHT22;15009;53.082;8.768;2022-09-12T20:30:06;18.70;99.90
27573;DHT22;15009;53.082;8.768;2022-09-12T20:33:07;18.70;99.90
27573;DHT22;15009;53.082;8.768;2022-09-12T20:36:11;18.70;99.90
27573;DHT22;15009;53.082;8.768;2022-09-12T20:39:14;18.70;99.90
27573;DHT22;15009;53.082;8.768;2022-09-12T20:42:15;18.80;99.90
27573;DHT22;15009;53.082;8.768;2022-09-12T20:45:15;18.80;99.90
27573;DHT22;15009;53.082;8.768;2022-09-12T20:48:16;18.80;99.90
27573;DHT22;15009;53.082;8.768;2022-09-12T20:51:17;18.80;99.90
27573;DHT22;15009;53.082;8.768;2022-09-12T20:54:18;18.70;99.90
27573;DHT22;15009;53.082;8.768;2022-09-12T20:57:18;18.60;99.90
27573;DHT22;15009;53.082;8.768;2022-09-12T21:00:19;18.50;99.90
27573;DHT22;15009;53.082;8.768;2022-09-12T21:03:20;18.50;99.90
27573;DHT22;15009;53.082;8.768;2022-09-12T21:06:21;18.40;99.90
27573;DHT22;15009;53.082;8.768;2022-09-12T21:09:22;18.50;99.90
27573;DHT22;15009;53.082;8.768;2022-09-12T21:12:22;18.40;99.90
27573;DHT22;15009;53.082;8.768;2022-09-12T21:15:23;18.40;99.90
27573;DHT22;15009;53.082;8.768;2022-09-12T21:18:24;18.30;99.90
27573;DHT22;15009;53.082;8.768;2022-09-12T21:21:25;18.30;99.90